• Join FlightAware (Why Join?)
  • Login
  • US Flag 
10:10AM EDT


 

Airport Tracker/Info


-or-


 

Live Flight TrackerFlight Track Log ✈ FSR411 ✈ 06-Apr-2014 ✈ 07FA - KCMI

Flight Track Log - Related Links

Times and Time Zones

All times are in EDT time to prevent confusion due to time zone crossing. See the FSR411 flight status page for this flight to view local times or setup timezone preferences in your user account.

Time Position Orientation Groundspeed Altitude Reporting Facility
EDT Latitude Longitude Course Direction KTS MPH feet Rate Location/Type
05:19PM 25.2753 -80.3033 86° East 181 208 1,600  Level Miami Center
05:20PM 25.2789 -80.2392 86° East 256 295 2,300 1,500 Climbing Miami Center
05:21PM 25.3453 -80.2617 343° North 226 260 5,100 2,820 Climbing Miami Center
05:22PM 25.3944 -80.2975 327° Northwest 231 266 8,100 2,880 Climbing Miami Center
05:22PM 25.4131 -80.3050 340° North 229 264 8,600 3,120 Climbing Miami Center
05:23PM 25.4561 -80.3408 323° Northwest 270 311 11,300 3,300 Climbing Miami Center
05:23PM 25.4789 -80.3506 339° North 276 318 11,900 3,300 Climbing Miami Center
05:24PM 25.5406 -80.3939 328° Northwest 321 369 15,000 2,340 Climbing Miami Center
05:25PM 25.6083 -80.4394 329° Northwest 373 429 15,900 840 Climbing Miami Center
05:25PM 25.6308 -80.4542 329° Northwest 374 430 16,000  Climbing Miami Center
05:26PM 25.7358 -80.5172 332° Northwest 395 455 15,900 240 Descending Miami Center
05:27PM 25.8242 -80.5775 328° Northwest 389 448 16,500 1,740 Climbing Miami Center
05:28PM 25.9167 -80.6381 330° Northwest 383 441 19,400 2,700 Climbing Miami Center
05:29PM 26.0133 -80.6989 331° Northwest 383 441 21,900 3,000 Climbing Miami Center
05:30PM 26.1097 -80.7622 329° Northwest 397 457 25,400 3,180 Climbing Miami Center
05:31PM 26.1981 -80.8206 329° Northwest 392 451 28,300 2,520 Climbing Miami Center
05:32PM 26.2861 -80.8792 329° Northwest 375 432 30,500 1,980 Climbing Miami Center
05:33PM 26.3878 -80.9036 348° North 364 419 32,300 1,680 Climbing Miami Center
05:34PM 26.4833 -80.9183 352° North 377 434 33,900 1,500 Climbing Miami Center
05:35PM 26.5875 -80.9358 351° North 377 434 35,300 1,260 Climbing Miami Center
05:36PM 26.6756 -80.9900 331° Northwest 364 419 36,500 1,200 Climbing Miami Center
05:37PM 26.7697 -81.0561 328° Northwest 357 411 37,800 1,200 Climbing Miami Center
05:38PM 26.8558 -81.1175 328° Northwest 362 417 39,000 1,260 Climbing Miami Center
05:39PM 26.9394 -81.1764 328° Northwest 362 417 40,400 1,200 Climbing Miami Center
05:40PM 27.0153 -81.2236 331° Northwest 350 403 41,500 960 Climbing Miami Center
05:41PM 27.0992 -81.2850 327° Northwest 345 397 42,400 660 Climbing Miami Center
05:42PM 27.1789 -81.3394 329° Northwest 340 391 42,900 300 Climbing Miami Center
05:43PM 27.2606 -81.3939 329° Northwest 340 391 43,000  Climbing Miami Center
05:44PM 27.3422 -81.4533 327° Northwest 345 397 43,000  Level Miami Center
05:45PM 27.4219 -81.5056 330° Northwest 351 404 43,000  Level Miami Center
05:48PM 27.6350 -81.6514 329° Northwest 357 411 43,000  Level Jacksonville Center
05:49PM 27.7253 -81.7111 330° Northwest 370 426 43,000  Level Jacksonville Center
05:50PM 27.8133 -81.7711 329° Northwest 370 426 43,000  Level Jacksonville Center
05:51PM 27.9014 -81.8336 328° Northwest 370 426 43,000  Level Jacksonville Center
05:52PM 27.9897 -81.8983 327° Northwest 370 426 43,000  Level Jacksonville Center
05:53PM 28.0756 -81.9586 328° Northwest 370 426 43,000  Level Jacksonville Center
05:54PM 28.1617 -82.0214 327° Northwest 370 426 43,000  Level Jacksonville Center
05:55PM 28.2600 -82.0700 336° Northwest 370 426 43,000  Level Jacksonville Center
05:56PM 28.3583 -82.1142 338° Northwest 375 432 43,000  Level Jacksonville Center
05:57PM 28.4567 -82.1606 337° Northwest 381 438 43,000  Level Jacksonville Center
05:58PM 28.5528 -82.2000 340° North 376 433 43,000  Level Jacksonville Center
05:59PM 28.6511 -82.2467 337° Northwest 376 433 43,000  Level Jacksonville Center
06:00PM 28.7475 -82.2911 338° Northwest 376 433 43,000  Level Jacksonville Center
06:01PM 28.8436 -82.3381 337° Northwest 376 433 43,000  Level Jacksonville Center
06:02PM 28.9503 -82.3847 339° North 371 427 43,000  Level Jacksonville Center
06:03PM 29.0464 -82.4294 338° Northwest 371 427 43,000  Level Jacksonville Center
06:04PM 29.1447 -82.4742 338° Northwest 371 427 43,000  Level Jacksonville Center
06:05PM 29.2408 -82.5214 337° Northwest 376 433 43,000  Level Jacksonville Center
06:06PM 29.3411 -82.5661 339° North 376 433 43,000  Level Jacksonville Center
06:07PM 29.4375 -82.6136 337° Northwest 376 433 43,000  Level Jacksonville Center
06:08PM 29.5294 -82.6586 337° Northwest 376 433 43,000  Level Jacksonville Center
06:09PM 29.6275 -82.7039 338° Northwest 381 438 43,000  Level Jacksonville Center
06:10PM 29.7258 -82.7492 338° Northwest 381 438 43,000  Level Jacksonville Center
06:11PM 29.8239 -82.7944 338° Northwest 375 432 43,000  Level Jacksonville Center
06:12PM 29.9200 -82.8422 337° Northwest 375 432 43,000  Level Jacksonville Center
06:13PM 30.0306 -82.8878 340° North 375 432 43,000  Level Jacksonville Center
06:14PM 30.1203 -82.9333 336° Northwest 381 438 43,000  Level Jacksonville Center
06:15PM 30.2164 -82.9792 338° Northwest 381 438 43,000  Level Jacksonville Center
06:16PM 30.3144 -83.0250 338° Northwest 375 432 43,000  Level Jacksonville Center
06:17PM 30.4147 -83.0733 337° Northwest 375 432 43,000  Level Jacksonville Center
06:18PM 30.5147 -83.1192 338° Northwest 375 432 43,000  Level Jacksonville Center
06:19PM 30.6128 -83.1678 337° Northwest 375 432 43,000  Level Jacksonville Center
06:20PM 30.7108 -83.2139 338° Northwest 375 432 43,000  Level Jacksonville Center
06:21PM 30.8131 -83.2628 338° Northwest 380 437 43,000  Level Jacksonville Center
06:22PM 30.9194 -83.3164 337° Northwest 380 437 43,000  Level Jacksonville Center
06:23PM 31.0172 -83.3628 338° Northwest 374 430 43,000  Level Jacksonville Center
06:24PM 31.1172 -83.4119 337° Northwest 379 436 43,000  Level Jacksonville Center
06:25PM 31.2172 -83.4611 337° Northwest 379 436 43,000  Level Jacksonville Center
06:27PM 31.4556 -83.5789 337° Northwest 383 441 43,000  Level Atlanta Center
06:28PM 31.5497 -83.6244 338° Northwest 378 435 43,000  Level Atlanta Center
06:29PM 31.6375 -83.6633 339° North 378 435 43,000  Level Atlanta Center
06:30PM 31.7336 -83.7142 336° Northwest 371 427 43,000  Level Atlanta Center
06:31PM 31.8403 -83.7650 338° Northwest 377 434 43,000  Level Atlanta Center
06:32PM 31.9364 -83.8136 337° Northwest 376 433 43,000  Level Atlanta Center
06:33PM 32.0283 -83.8600 337° Northwest 366 421 43,000  Level Atlanta Center
06:34PM 32.1200 -83.9039 338° Northwest 360 414 43,000  Level Atlanta Center
06:35PM 32.2161 -83.9506 338° Northwest 360 414 43,000  Level Atlanta Center
06:36PM 32.3122 -83.9994 337° Northwest 360 414 43,000  Level Atlanta Center
06:37PM 32.4083 -84.0486 337° Northwest 360 414 43,000  Level Atlanta Center
06:38PM 32.5042 -84.0956 338° Northwest 365 420 43,000  Level Atlanta Center
06:39PM 32.6022 -84.1450 337° Northwest 375 432 43,000  Level Atlanta Center
06:40PM 32.7003 -84.1969 336° Northwest 375 432 43,000  Level Atlanta Center
06:41PM 32.7964 -84.2414 339° North 375 432 43,000  Level Atlanta Center
06:42PM 32.8964 -84.2961 335° Northwest 386 444 43,000  Level Atlanta Center
06:43PM 32.9922 -84.3483 335° Northwest 386 444 43,000  Level Atlanta Center
06:44PM 33.0944 -84.3983 338° Northwest 386 444 43,000  Level Atlanta Center
06:45PM 33.1819 -84.4458 336° Northwest 386 444 43,000  Level Atlanta Center
06:46PM 33.2819 -84.4936 338° Northwest 386 444 43,000  Level Atlanta Center
06:47PM 33.3842 -84.5464 337° Northwest 392 451 43,000  Level Atlanta Center
06:48PM 33.4819 -84.5967 337° Northwest 392 451 43,000  Level Atlanta Center
06:49PM 33.5819 -84.6472 337° Northwest 386 444 43,000  Level Atlanta Center
06:50PM 33.6881 -84.7003 337° Northwest 386 444 43,000  Level Atlanta Center
06:51PM 33.7839 -84.7486 337° Northwest 380 437 43,000  Level Atlanta Center
06:52PM 33.8817 -84.7994 337° Northwest 380 437 43,000  Level Atlanta Center
06:53PM 33.9836 -84.8556 335° Northwest 389 448 43,000  Level Atlanta Center
06:54PM 34.0814 -84.9017 339° North 391 450 43,000  Level Atlanta Center
06:55PM 34.1686 -84.9478 336° Northwest 391 450 43,000  Level Atlanta Center
06:56PM 34.2664 -84.9964 338° Northwest 386 444 43,000  Level Atlanta Center
06:57PM 34.3642 -85.0478 337° Northwest 378 435 43,000  Level Atlanta Center
06:58PM 34.4617 -85.0969 337° Northwest 378 435 43,000  Level Atlanta Center
06:59PM 34.5594 -85.1486 336° Northwest 378 435 43,000  Level Atlanta Center
07:00PM 34.6653 -85.2081 335° Northwest 372 428 43,000  Level Atlanta Center
07:01PM 34.7650 -85.2625 336° Northwest 384 442 43,000  Level Atlanta Center
07:02PM 34.8686 -85.3172 337° Northwest 389 448 43,000  Level Atlanta Center
07:03PM 34.9686 -85.3681 337° Northwest 397 457 43,000  Level Memphis Center
07:04PM 35.0664 -85.4211 336° Northwest 390 449 43,000  Level Memphis Center
07:05PM 35.1625 -85.4722 337° Northwest 382 440 43,000  Level Memphis Center
07:06PM 35.2675 -85.5286 336° Northwest 381 438 43,000  Level Memphis Center
07:07PM 35.3564 -85.5764 336° Northwest 381 438 43,000  Level Memphis Center
07:08PM 35.4533 -85.6292 336° Northwest 380 437 43,000  Level Memphis Center
07:09PM 35.5508 -85.6811 337° Northwest 380 437 43,000  Level Memphis Center
07:10PM 35.6661 -85.7444 336° Northwest 380 437 43,000  Level Memphis Center
07:11PM 35.7631 -85.7975 336° Northwest 380 437 43,000  Level Memphis Center
07:12PM 35.8594 -85.8506 336° Northwest 379 436 43,000  Level Memphis Center
07:13PM 35.9650 -85.9067 337° Northwest 380 437 43,000  Level Memphis Center
07:15PM 36.0633 -85.9611 336° Northwest 380 437 43,000  Level Memphis Center
07:16PM 36.1617 -86.0147 336° Northwest 381 438 43,000  Level Memphis Center
07:17PM 36.2608 -86.0697 336° Northwest 382 440 43,000  Level Memphis Center
07:18PM 36.3597 -86.1236 336° Northwest 384 442 43,000  Level Memphis Center
07:19PM 36.4581 -86.1789 336° Northwest 384 442 43,000  Level Memphis Center
07:20PM 36.5572 -86.2328 336° Northwest 384 442 43,000  Level Memphis Center
07:21PM 36.6553 -86.2881 336° Northwest 384 442 43,000  Level Memphis Center
07:22PM 36.7542 -86.3444 335° Northwest 385 443 43,000  Level Memphis Center
07:23PM 36.8708 -86.4089 336° Northwest 386 444 43,000  Level Memphis Center
07:24PM 36.9708 -86.4647 336° Northwest 388 447 43,000  Level Memphis Center
07:25PM 37.0697 -86.5217 335° Northwest 388 447 43,000  Level Memphis Center
07:26PM 37.1706 -86.5789 336° Northwest 390 449 43,000  Level Memphis Center
07:27PM 37.2722 -86.6358 336° Northwest 394 453 43,000  Level Memphis Center
07:28PM 37.3728 -86.6928 336° Northwest 394 453 43,000  Level Memphis Center
07:29PM 37.4747 -86.7528 335° Northwest 395 455 43,000  Level Memphis Center
07:30PM 37.5764 -86.8108 336° Northwest 398 458 43,000  Level Memphis Center
07:31PM 37.6778 -86.8683 336° Northwest 398 458 43,000  Level Memphis Center
07:32PM 37.8219 -86.9517 335° Northwest 396 456 43,000  Level Indianapolis Center
07:33PM 37.9233 -87.0103 335° Northwest 397 457 43,000  Level Indianapolis Center
07:34PM 38.0258 -87.0697 335° Northwest 397 457 43,000 -540 Level Indianapolis Center
07:35PM 38.1283 -87.1294 335° Northwest 399 459 41,900 -1,260 Descending Indianapolis Center
07:36PM 38.2342 -87.1906 336° Northwest 401 461 40,400 -1,500 Descending Indianapolis Center
07:37PM 38.3508 -87.2578 336° Northwest 424 488 38,800 -1,800 Descending Indianapolis Center
07:39PM 38.4781 -87.3067 343° North 465 535 36,800 -1,980 Descending Indianapolis Center
07:40PM 38.6008 -87.3583 342° North 465 535 34,800 -2,460 Descending Indianapolis Center
07:41PM 38.7503 -87.4253 341° North 465 535 31,800 -2,700 Descending Indianapolis Center
07:42PM 38.8703 -87.4836 339° North 463 533 29,300 -2,340 Descending Indianapolis Center
07:43PM 38.9842 -87.5417 338° Northwest 445 512 27,000 -2,280 Descending Indianapolis Center
07:44PM 39.0844 -87.6161 330° Northwest 421 484 24,700 -2,280 Descending Indianapolis Center
07:45PM 39.1828 -87.6822 332° Northwest 405 466 22,300 -2,640 Descending Indianapolis Center
07:46PM 39.2778 -87.7478 332° Northwest 393 452 19,300 -3,000 Descending Indianapolis Center
07:47PM 39.3794 -87.8183 332° Northwest 378 435 16,100 -2,760 Descending Indianapolis Center
07:48PM 39.4761 -87.8836 332° Northwest 384 442 13,600 -2,280 Descending Indianapolis Center
07:49PM 39.5675 -87.9478 332° Northwest 377 434 11,500 -2,040 Descending Indianapolis Center
07:50PM 39.6450 -88.0000 333° Northwest 329 379 9,500 -1,920 Descending Indianapolis Center
07:51PM 39.7153 -88.0508 331° Northwest 299 344 7,600 -1,680 Descending Indianapolis Center
07:52PM 39.7911 -88.1039 332° Northwest 289 333 6,100 -1,500 Descending Indianapolis Center
07:55PM 39.9620 -88.2173 330° Northwest  Level FlightAware Approximate
08:02PM 40.0333 -88.2667 333° Northwest  Level FlightAware Approximate
08:03PM 40.0388 -88.2778 333° Northwest  Level Estimated
08:04PM 40.0388 -88.2778 333° Northwest  Level Estimated
08:05PM 40.0388 -88.2778 333° Northwest  Level Estimated
08:06PM 40.0388 -88.2778 333° Northwest  Level Estimated